Time;durP1;ratioP1;P1;durP2;ratioP2;P2;SDS_P1;SDS_P2;PMS_P1;PMS_P2;Temp;Humidity;BMP_temperature;BMP_pressure;BME280_temperature;BME280_humidity;BME280_pressure;Samples;Min_cycle;Max_cycle;Signal;HPM_P1;HPM_P2
2022/10/06 00:00:33;;;;;;;3.90;2.50;;;;;;;10.03;100.00;99969.29;100843;1331;22748;-32
2022/10/06 00:02:59;;;;;;;3.30;2.20;;;;;;;10.08;100.00;99972.27;100732;1339;24302;-32
2022/10/06 00:05:25;;;;;;;9.90;2.70;;;;;;;10.12;100.00;99974.70;100771;1339;22500;-39
2022/10/06 00:07:51;;;;;;;7.50;2.50;;;;;;;10.12;100.00;99974.53;100735;1339;23060;-35
2022/10/06 00:10:16;;;;;;;9.90;3.90;;;;;;;10.14;100.00;99977.01;100759;1339;22747;-37
2022/10/06 00:12:44;;;;;;;5.00;2.20;;;;;;;10.13;100.00;99976.81;100695;1331;23214;-35
2022/10/06 00:15:10;;;;;;;5.00;2.30;;;;;;;10.11;100.00;99973.73;100740;1339;24392;-35
2022/10/06 00:17:36;;;;;;;5.00;2.10;;;;;;;10.13;100.00;99972.85;100757;1332;23845;-35
2022/10/06 00:20:02;;;;;;;2.90;1.60;;;;;;;10.11;100.00;99969.09;100811;1339;22747;-35
2022/10/06 00:22:32;;;;;;;11.80;3.40;;;;;;;10.15;100.00;99975.99;100710;1339;22864;-36
2022/10/06 00:24:58;;;;;;;2.90;1.60;;;;;;;10.15;100.00;99968.92;100765;1339;23002;-32
2022/10/06 00:27:24;;;;;;;7.00;2.50;;;;;;;10.16;100.00;99968.98;100730;1340;22889;-35
2022/10/06 00:29:49;;;;;;;5.50;3.00;;;;;;;10.19;100.00;99966.05;100715;1339;24379;-34
2022/10/06 00:32:15;;;;;;;6.60;2.70;;;;;;;10.23;100.00;99966.05;100825;1331;22962;-33
2022/10/06 00:34:42;;;;;;;6.80;1.70;;;;;;;10.25;100.00;99964.40;100785;1331;24658;-38
2022/10/06 00:37:07;;;;;;;6.20;2.50;;;;;;;10.28;100.00;99961.05;100727;1339;24423;-33
2022/10/06 00:39:33;;;;;;;2.80;2.20;;;;;;;10.29;100.00;99959.29;100784;1331;22917;-36
2022/10/06 00:41:58;;;;;;;3.20;2.10;;;;;;;10.28;100.00;99961.34;100804;1339;26597;-33
2022/10/06 00:44:24;;;;;;;6.20;1.70;;;;;;;10.30;100.00;99965.33;100777;1339;23356;-36
2022/10/06 00:46:50;;;;;;;5.70;1.90;;;;;;;10.27;100.00;99965.45;100732;1331;23221;-36
2022/10/06 00:49:18;;;;;;;5.40;2.90;;;;;;;10.29;100.00;99961.10;100806;1339;24459;-36
2022/10/06 00:51:46;;;;;;;2.70;1.80;;;;;;;10.30;100.00;99962.94;100681;1339;22738;-32
2022/10/06 00:54:12;;;;;;;5.70;2.70;;;;;;;10.27;100.00;99960.39;100758;1339;24379;-35
2022/10/06 00:56:39;;;;;;;23.20;1.80;;;;;;;10.28;100.00;99958.71;100723;1339;24427;-38
2022/10/06 00:59:11;;;;;;;6.20;3.30;;;;;;;10.27;100.00;99956.42;100760;1339;24379;-32
2022/10/06 01:01:37;;;;;;;2.30;1.90;;;;;;;10.26;100.00;99957.11;100796;1339;22502;-32
2022/10/06 01:04:05;;;;;;;7.10;1.90;;;;;;;10.23;100.00;99956.73;100716;1334;22755;-35
2022/10/06 01:06:40;;;;;;;12.60;2.60;;;;;;;10.23;100.00;99957.06;100800;1339;22635;-36
2022/10/06 01:09:06;;;;;;;4.50;2.50;;;;;;;10.31;100.00;99952.80;100712;1339;25550;-32
2022/10/06 01:11:34;;;;;;;4.00;1.70;;;;;;;10.32;100.00;99954.51;100856;1331;22884;-35
2022/10/06 01:14:00;;;;;;;3.40;2.70;;;;;;;10.34;100.00;99952.31;100757;1337;24587;-33
2022/10/06 01:16:25;;;;;;;1.80;1.10;;;;;;;10.31;100.00;99954.08;100774;1337;22874;-38
2022/10/06 01:18:51;;;;;;;2.20;1.30;;;;;;;10.31;100.00;99948.70;100821;1331;22968;-40
2022/10/06 01:21:22;;;;;;;3.90;2.10;;;;;;;10.29;100.00;99955.16;100748;1331;24367;-34
2022/10/06 01:23:48;;;;;;;2.80;2.00;;;;;;;10.22;100.00;99962.77;100716;1332;24465;-33
2022/10/06 01:26:15;;;;;;;4.30;1.60;;;;;;;10.19;100.00;99960.94;100828;1337;22745;-34
2022/10/06 01:28:40;;;;;;;2.40;1.70;;;;;;;10.19;100.00;99960.09;100743;1332;25269;-32
2022/10/06 01:31:05;;;;;;;3.20;1.70;;;;;;;10.19;100.00;99960.41;100779;1333;24324;-34
2022/10/06 01:33:31;;;;;;;2.30;1.90;;;;;;;10.17;100.00;99958.21;100738;1331;26579;-34
2022/10/06 01:35:57;;;;;;;12.10;3.00;;;;;;;10.17;100.00;99959.05;100797;1339;23097;-34
2022/10/06 01:38:22;;;;;;;12.90;2.70;;;;;;;10.20;100.00;99959.36;100721;1324;24767;-34
2022/10/06 01:40:49;;;;;;;7.90;2.50;;;;;;;10.23;100.00;99955.48;100615;1339;22744;-34
2022/10/06 01:43:14;;;;;;;3.40;3.00;;;;;;;10.21;100.00;99959.83;100770;1339;24450;-34
2022/10/06 01:45:40;;;;;;;3.80;2.60;;;;;;;10.20;100.00;99952.41;100738;1337;23085;-37
2022/10/06 01:48:05;;;;;;;3.30;2.70;;;;;;;10.21;100.00;99951.90;100614;1341;22846;-33
2022/10/06 01:50:31;;;;;;;3.30;2.20;;;;;;;10.17;100.00;99956.00;100755;1331;24382;-37
2022/10/06 01:52:56;;;;;;;6.10;2.40;;;;;;;10.15;100.00;99956.09;100730;1339;22726;-36
2022/10/06 01:55:23;;;;;;;4.60;2.50;;;;;;;10.14;100.00;99959.62;100751;1339;22945;-32
2022/10/06 01:57:49;;;;;;;2.60;1.70;;;;;;;10.09;100.00;99959.98;100836;1331;24378;-33
2022/10/06 02:00:15;;;;;;;8.10;2.90;;;;;;;10.08;100.00;99963.36;100828;1331;22928;-34
2022/10/06 02:02:41;;;;;;;2.60;2.10;;;;;;;10.10;100.00;99964.34;100802;1339;24539;-33
2022/10/06 02:05:07;;;;;;;3.90;2.00;;;;;;;10.12;100.00;99966.67;100714;1331;23206;-34
2022/10/06 02:07:34;;;;;;;7.30;2.70;;;;;;;10.17;100.00;99970.33;100754;1331;24350;-34
2022/10/06 02:10:00;;;;;;;3.40;1.80;;;;;;;10.22;100.00;99970.63;100759;1339;25277;-33
2022/10/06 02:12:25;;;;;;;4.00;1.60;;;;;;;10.22;100.00;99969.17;100760;1331;24379;-36
2022/10/06 02:14:51;;;;;;;4.90;2.60;;;;;;;10.26;100.00;99974.13;100726;1339;24286;-33
2022/10/06 02:17:16;;;;;;;4.80;2.10;;;;;;;10.27;100.00;99974.34;100791;1339;24464;-33
2022/10/06 02:19:42;;;;;;;4.40;2.40;;;;;;;10.24;100.00;99973.94;100710;1339;24322;-36
2022/10/06 02:22:07;;;;;;;2.80;2.00;;;;;;;10.22;100.00;99976.86;100777;1339;23016;-36
2022/10/06 02:24:33;;;;;;;8.50;2.60;;;;;;;10.26;100.00;99973.36;100755;1339;23182;-37
2022/10/06 02:26:59;;;;;;;4.20;3.10;;;;;;;10.26;100.00;99973.40;100710;1317;22499;-33
2022/10/06 02:29:24;;;;;;;6.30;3.10;;;;;;;10.25;100.00;99973.86;100752;1339;24336;-36
2022/10/06 02:31:51;;;;;;;11.50;3.10;;;;;;;10.22;100.00;99975.29;100772;1336;24370;-34
2022/10/06 02:34:16;;;;;;;3.50;2.50;;;;;;;10.19;100.00;99977.55;100757;1339;24490;-34
2022/10/06 02:36:42;;;;;;;2.40;1.90;;;;;;;10.22;100.00;99974.55;100730;1339;23203;-36
2022/10/06 02:39:07;;;;;;;2.60;1.80;;;;;;;10.19;100.00;99978.48;100788;1339;22509;-36
2022/10/06 02:41:33;;;;;;;3.40;2.70;;;;;;;10.15;100.00;99983.98;100830;1331;22570;-37
2022/10/06 02:43:59;;;;;;;4.40;2.60;;;;;;;10.11;100.00;99985.41;100857;1339;22874;-32
2022/10/06 02:46:24;;;;;;;3.50;2.00;;;;;;;10.09;100.00;99983.41;100847;1331;24341;-37
2022/10/06 02:48:52;;;;;;;3.60;2.40;;;;;;;10.05;100.00;99983.58;100693;1333;23090;-33
2022/10/06 02:51:18;;;;;;;5.40;2.20;;;;;;;10.00;100.00;99988.06;100716;1339;24491;-34
2022/10/06 02:53:44;;;;;;;2.90;2.10;;;;;;;9.96;100.00;99986.22;100730;1339;23095;-34
2022/10/06 02:56:11;;;;;;;2.20;2.00;;;;;;;9.90;100.00;99995.28;100676;1334;22880;-36
2022/10/06 02:58:38;;;;;;;10.50;2.20;;;;;;;9.89;100.00;99996.02;100726;1339;24446;-36
2022/10/06 03:01:04;;;;;;;3.00;2.70;;;;;;;9.86;100.00;100000.65;100779;1339;25346;-34
2022/10/06 03:03:31;;;;;;;7.60;2.80;;;;;;;9.81;100.00;99997.74;100670;1339;23095;-33
2022/10/06 03:06:00;;;;;;;4.20;2.90;;;;;;;9.82;100.00;100007.50;100784;1339;24369;-33
2022/10/06 03:08:26;;;;;;;16.50;3.20;;;;;;;9.85;100.00;100007.56;100856;1339;23186;-36
2022/10/06 03:10:51;;;;;;;6.30;2.90;;;;;;;9.92;100.00;100006.17;100688;1339;24288;-36
2022/10/06 03:13:17;;;;;;;5.90;2.20;;;;;;;9.99;100.00;100006.42;100794;1330;22739;-33
2022/10/06 03:15:42;;;;;;;3.90;2.90;;;;;;;9.99;100.00;100003.40;100683;1339;23088;-32
2022/10/06 03:18:08;;;;;;;7.90;2.50;;;;;;;10.01;100.00;100004.10;100735;1339;22846;-36
2022/10/06 03:20:34;;;;;;;2.90;2.30;;;;;;;9.99;100.00;100004.63;100686;1331;22508;-36
2022/10/06 03:22:59;;;;;;;4.60;3.50;;;;;;;9.97;100.00;100012.35;100810;1332;23053;-36
2022/10/06 03:25:25;;;;;;;3.20;2.90;;;;;;;9.91;100.00;100013.29;100688;1331;23089;-33
2022/10/06 03:27:51;;;;;;;13.00;2.80;;;;;;;9.81;100.00;100019.11;100770;1339;22845;-33
2022/10/06 03:30:16;;;;;;;1.60;1.20;;;;;;;9.77;100.00;100024.20;100818;1339;22506;-33
2022/10/06 03:32:42;;;;;;;4.70;2.90;;;;;;;9.67;100.00;100029.61;100761;1339;22735;-34
2022/10/06 03:35:08;;;;;;;2.60;2.20;;;;;;;9.67;100.00;100033.61;100823;1331;23090;-34
2022/10/06 03:37:33;;;;;;;2.00;1.80;;;;;;;9.67;100.00;100033.70;100756;1331;23017;-35
2022/10/06 03:40:00;;;;;;;3.30;2.20;;;;;;;9.76;100.00;100036.83;100764;1339;22866;-34
2022/10/06 03:42:25;;;;;;;8.90;2.00;;;;;;;9.77;100.00;100037.73;100656;1334;24379;-35
2022/10/06 03:44:51;;;;;;;4.30;2.80;;;;;;;9.84;100.00;100037.34;100736;1339;22744;-32
2022/10/06 03:47:18;;;;;;;4.60;2.80;;;;;;;9.89;100.00;100037.34;100772;1338;24574;-35
2022/10/06 03:49:43;;;;;;;9.20;3.10;;;;;;;9.89;100.00;100044.31;100705;1339;22758;-32
2022/10/06 03:52:09;;;;;;;2.10;1.30;;;;;;;9.88;100.00;100040.42;100785;1339;23084;-35
2022/10/06 03:54:34;;;;;;;2.40;2.10;;;;;;;9.87;100.00;100046.17;100826;1331;22562;-35
2022/10/06 03:57:00;;;;;;;5.10;2.70;;;;;;;9.83;100.00;100045.56;100739;1339;24529;-31
2022/10/06 03:59:28;;;;;;;2.60;1.90;;;;;;;9.80;100.00;100046.38;100789;1324;22753;-38
2022/10/06 04:01:54;;;;;;;3.80;2.90;;;;;;;9.80;100.00;100047.29;100839;1339;23029;-32
2022/10/06 04:04:20;;;;;;;4.10;2.90;;;;;;;9.74;100.00;100051.67;100766;1339;22736;-33
2022/10/06 04:06:45;;;;;;;6.90;2.00;;;;;;;9.72;100.00;100055.84;100710;1334;22711;-35
2022/10/06 04:09:12;;;;;;;23.60;3.10;;;;;;;9.74;100.00;100056.17;100723;1333;24491;-32
2022/10/06 04:11:38;;;;;;;4.80;2.80;;;;;;;9.73;100.00;100061.80;100781;1331;22758;-34
2022/10/06 04:14:05;;;;;;;20.40;2.70;;;;;;;9.71;100.00;100055.78;100819;1339;22744;-35
2022/10/06 04:16:32;;;;;;;12.00;2.60;;;;;;;9.67;100.00;100064.66;100809;1331;22722;-32
2022/10/06 04:18:59;;;;;;;4.00;2.70;;;;;;;9.60;100.00;100066.15;100719;1339;24864;-33
2022/10/06 04:21:25;;;;;;;2.20;1.70;;;;;;;9.55;100.00;100065.63;100792;1331;22516;-32
2022/10/06 04:23:52;;;;;;;7.60;2.00;;;;;;;9.56;100.00;100069.45;100725;1340;22748;-33
2022/10/06 04:26:18;;;;;;;2.80;2.20;;;;;;;9.56;100.00;100074.17;100759;1339;24341;-32
2022/10/06 04:28:44;;;;;;;5.50;3.50;;;;;;;9.58;100.00;100078.33;100762;1332;22702;-33
2022/10/06 04:31:15;;;;;;;3.10;2.20;;;;;;;9.60;100.00;100080.10;100767;1339;23260;-37
2022/10/06 04:33:42;;;;;;;5.00;2.60;;;;;;;9.61;100.00;100079.98;100739;1327;22498;-35
2022/10/06 04:36:10;;;;;;;7.10;2.20;;;;;;;9.65;100.00;100081.53;100804;1339;22872;-31
2022/10/06 04:38:35;;;;;;;3.40;3.00;;;;;;;9.71;100.00;100082.02;100780;1334;23112;-35
2022/10/06 04:41:05;;;;;;;3.40;2.70;;;;;;;9.70;100.00;100085.26;100720;1339;22755;-35
2022/10/06 04:43:32;;;;;;;1.90;1.70;;;;;;;9.72;100.00;100087.16;100822;1339;24069;-32
2022/10/06 04:45:58;;;;;;;4.70;3.50;;;;;;;9.78;100.00;100086.11;100799;1331;24363;-35
2022/10/06 04:48:25;;;;;;;10.30;3.80;;;;;;;9.79;100.00;100088.09;100843;1324;22902;-34
2022/10/06 04:50:55;;;;;;;3.30;2.60;;;;;;;9.82;100.00;100093.55;100836;1339;22890;-35
2022/10/06 04:53:20;;;;;;;5.50;2.80;;;;;;;9.88;100.00;100095.19;100794;1331;22498;-33
2022/10/06 04:55:46;;;;;;;3.70;2.40;;;;;;;9.96;100.00;100099.30;100722;1337;22712;-33
2022/10/06 04:58:11;;;;;;;5.90;3.30;;;;;;;10.03;100.00;100102.45;100779;1339;24505;-36
2022/10/06 05:00:37;;;;;;;3.40;2.50;;;;;;;10.08;100.00;100105.23;100789;1339;25041;-36
2022/10/06 05:03:02;;;;;;;6.60;3.30;;;;;;;10.08;100.00;100112.04;100738;1339;25020;-36
2022/10/06 05:05:28;;;;;;;3.80;2.10;;;;;;;10.11;100.00;100113.88;100730;1339;26603;-33
2022/10/06 05:07:53;;;;;;;9.50;2.70;;;;;;;10.15;100.00;100115.55;100726;1324;24542;-36
2022/10/06 05:10:19;;;;;;;6.60;2.90;;;;;;;10.17;100.00;100118.34;100669;1339;22871;-36
2022/10/06 05:12:44;;;;;;;2.70;1.90;;;;;;;10.17;100.00;100117.56;100758;1329;22731;-36
2022/10/06 05:15:10;;;;;;;2.60;2.20;;;;;;;10.16;100.00;100109.88;100712;1339;22748;-33
2022/10/06 05:17:35;;;;;;;3.90;1.90;;;;;;;10.17;100.00;100113.00;100698;1340;23356;-33
2022/10/06 05:20:01;;;;;;;2.90;1.30;;;;;;;10.12;100.00;100110.18;100723;1339;24561;-35
2022/10/06 05:22:26;;;;;;;3.50;2.90;;;;;;;10.05;100.00;100119.88;100721;1339;25354;-36
2022/10/06 05:24:52;;;;;;;2.80;2.20;;;;;;;10.01;100.00;100125.90;100768;1339;23053;-36
2022/10/06 05:27:19;;;;;;;2.50;2.30;;;;;;;9.98;100.00;100132.89;100695;1324;22442;-32
2022/10/06 05:29:46;;;;;;;1.80;1.70;;;;;;;9.96;100.00;100140.29;100779;1339;25758;-32
2022/10/06 05:32:11;;;;;;;12.40;2.70;;;;;;;9.96;100.00;100142.63;100761;1331;22760;-35
2022/10/06 05:34:37;;;;;;;5.60;3.30;;;;;;;10.03;100.00;100147.09;100787;1339;22900;-35
2022/10/06 05:37:02;;;;;;;4.00;2.90;;;;;;;10.22;100.00;100145.45;100789;1339;22901;-32
2022/10/06 05:39:28;;;;;;;2.60;1.60;;;;;;;10.31;100.00;100148.30;100775;1339;23061;-36
2022/10/06 05:48:36;;;;;;;6.50;1.80;;;;;;;10.65;100.00;100151.80;100164;1345;545268;-33
2022/10/06 05:51:04;;;;;;;5.90;2.10;;;;;;;10.78;100.00;100154.77;100289;1345;23230;-32
2022/10/06 05:53:31;;;;;;;6.00;2.00;;;;;;;10.87;100.00;100154.13;100441;1345;22505;-36
2022/10/06 05:56:01;;;;;;;3.00;1.60;;;;;;;10.90;100.00;100157.74;100471;1337;22777;-33
2022/10/06 05:58:27;;;;;;;2.40;2.10;;;;;;;10.98;100.00;100167.48;100464;1342;24388;-33
2022/10/06 06:00:53;;;;;;;5.80;1.80;;;;;;;11.11;100.00;100166.83;100342;1337;22527;-36
2022/10/06 06:03:19;;;;;;;3.60;1.80;;;;;;;11.26;100.00;100172.33;100200;1340;428992;-32
2022/10/06 06:05:44;;;;;;;1.80;1.30;;;;;;;11.50;100.00;100172.30;100641;1334;22745;-33
2022/10/06 06:08:10;;;;;;;3.20;1.00;;;;;;;11.79;100.00;100162.36;100734;1334;23538;-33
2022/10/06 06:10:36;;;;;;;5.70;3.20;;;;;;;11.97;100.00;100167.77;100682;1340;24483;-35
2022/10/06 06:13:02;;;;;;;5.00;1.10;;;;;;;12.22;100.00;100165.55;100675;1334;22490;-36
2022/10/06 06:17:57;;;;;;;1.60;1.20;;;;;;;12.60;100.00;100173.76;100405;1342;23232;-37
2022/10/06 06:20:22;;;;;;;1.80;1.10;;;;;;;12.61;100.00;100179.04;100640;1336;22770;-37
2022/10/06 06:22:52;;;;;;;4.10;2.50;;;;;;;12.74;99.87;100185.85;100614;1334;23115;-37
2022/10/06 06:25:17;;;;;;;8.40;2.40;;;;;;;12.77;99.88;100183.23;100651;1334;23116;-37
2022/10/06 06:27:44;;;;;;;2.50;1.90;;;;;;;12.84;98.96;100191.67;100563;1334;22747;-34
2022/10/06 06:30:10;;;;;;;2.50;1.70;;;;;;;12.77;99.17;100187.69;100604;1334;24413;-34
2022/10/06 06:32:35;;;;;;;2.30;1.50;;;;;;;12.69;99.84;100195.80;100655;1334;24316;-33
2022/10/06 06:35:01;;;;;;;2.50;1.70;;;;;;;12.74;99.64;100201.83;100693;1341;23241;-34
2022/10/06 06:37:30;;;;;;;1.30;0.80;;;;;;;12.88;98.52;100205.16;100641;1334;24481;-36
2022/10/06 06:39:56;;;;;;;1.80;1.60;;;;;;;12.81;98.69;100209.27;100722;1341;23004;-35
2022/10/06 06:42:21;;;;;;;2.10;1.70;;;;;;;12.83;98.89;100207.72;100677;1332;23111;-35
2022/10/06 06:44:47;;;;;;;3.70;1.60;;;;;;;12.85;99.01;100213.59;100675;1342;23238;-36
2022/10/06 06:47:15;;;;;;;3.20;1.30;;;;;;;12.78;99.97;100214.34;100511;1342;24231;-39
2022/10/06 06:49:41;;;;;;;4.00;1.80;;;;;;;12.83;100.00;100215.46;100646;1334;22754;-36
2022/10/06 06:52:07;;;;;;;2.50;1.60;;;;;;;13.00;99.56;100216.48;100647;1341;22865;-36
2022/10/06 06:54:33;;;;;;;2.60;1.60;;;;;;;13.07;99.36;100218.08;100642;1342;24271;-34
2022/10/06 06:56:59;;;;;;;1.70;1.50;;;;;;;13.19;98.95;100218.84;100640;1334;23199;-34
2022/10/06 06:59:25;;;;;;;1.80;1.30;;;;;;;13.31;99.88;100219.36;100657;1334;23009;-36
2022/10/06 07:01:50;;;;;;;3.30;2.10;;;;;;;13.53;99.65;100219.60;100718;1342;22884;-33
2022/10/06 07:04:16;;;;;;;2.00;1.20;;;;;;;13.77;99.26;100217.11;100689;1341;23087;-33
2022/10/06 07:06:52;;;;;;;2.50;1.20;;;;;;;13.94;96.82;100219.62;100657;1342;22761;-33
2022/10/06 07:09:19;;;;;;;;;;;;;;;14.18;94.56;100207.09;100660;1335;23283;-36
2022/10/06 07:11:45;;;;;;;4.40;1.10;;;;;;;14.31;94.75;100205.95;100528;1337;22885;-33
2022/10/06 07:14:11;;;;;;;1.50;1.20;;;;;;;14.66;94.02;100205.64;100498;1333;23017;-33
2022/10/06 07:26:33;;;;;;;25.80;10.90;;;;;;;15.14;89.83;100241.88;100765;1334;22965;-35
2022/10/06 07:28:59;;;;;;;10.00;1.80;;;;;;;15.18;90.12;100242.23;100779;1331;22893;-34
2022/10/06 07:31:31;;;;;;;1.30;1.10;;;;;;;15.25;90.13;100245.61;100712;1325;22748;-35
2022/10/06 07:33:59;;;;;;;2.00;0.90;;;;;;;15.40;89.16;100248.83;100737;1339;24379;-36
2022/10/06 07:36:25;;;;;;;2.40;1.20;;;;;;;15.51;86.77;100246.20;100739;1331;22881;-36
2022/10/06 07:38:50;;;;;;;2.30;1.20;;;;;;;15.49;86.13;100249.41;100716;1335;22748;-34
2022/10/06 07:41:16;;;;;;;1.80;0.50;;;;;;;15.52;86.07;100249.66;100679;1331;23168;-36
2022/10/06 07:43:42;;;;;;;1.30;0.90;;;;;;;15.59;86.43;100254.83;100798;1339;22761;-36
2022/10/06 07:46:09;;;;;;;1.10;0.80;;;;;;;15.76;85.88;100260.89;100833;1339;22884;-34
2022/10/06 07:48:36;;;;;;;0.80;0.70;;;;;;;15.84;85.03;100259.85;100866;1339;22751;-37
2022/10/06 07:51:05;;;;;;;1.90;0.90;;;;;;;15.96;84.62;100265.63;100668;1334;22937;-34
2022/10/06 07:53:31;;;;;;;1.50;0.90;;;;;;;15.95;84.70;100266.09;100875;1339;22859;-38
2022/10/06 07:56:03;;;;;;;2.40;1.40;;;;;;;16.09;84.71;100269.39;100634;1339;25271;-33
2022/10/06 07:58:28;;;;;;;1.20;0.90;;;;;;;16.31;83.88;100273.35;100757;1334;22787;-35
2022/10/06 08:00:54;;;;;;;2.20;1.20;;;;;;;16.55;82.17;100272.90;100594;1335;22748;-36
2022/10/06 08:03:20;;;;;;;0.90;0.70;;;;;;;16.68;81.20;100272.48;100713;1331;22739;-33
2022/10/06 08:05:48;;;;;;;2.40;1.50;;;;;;;16.80;80.14;100277.67;100718;1339;22918;-36
2022/10/06 08:08:13;;;;;;;2.10;0.90;;;;;;;16.82;80.66;100276.20;100753;1339;22666;-36
2022/10/06 08:10:40;;;;;;;2.20;1.00;;;;;;;17.06;79.78;100276.67;100774;1324;22751;-36
2022/10/06 08:13:06;;;;;;;1.90;0.50;;;;;;;17.25;78.09;100284.98;100774;1334;22783;-35
2022/10/06 08:15:32;;;;;;;5.60;1.00;;;;;;;17.41;78.15;100285.38;100561;1339;22910;-34
2022/10/06 08:18:00;;;;;;;1.80;1.10;;;;;;;17.63;77.16;100291.33;100611;1334;22497;-34
2022/10/06 08:20:26;;;;;;;1.00;0.70;;;;;;;17.86;76.42;100293.12;100735;1331;24306;-38
2022/10/06 08:22:52;;;;;;;2.00;1.20;;;;;;;18.00;74.68;100295.25;100765;1334;23251;-35
2022/10/06 08:25:18;;;;;;;1.90;0.90;;;;;;;18.11;73.70;100297.36;100825;1339;22520;-37
2022/10/06 08:27:43;;;;;;;1.10;0.70;;;;;;;18.45;72.33;100296.23;100737;1339;23096;-37
2022/10/06 08:30:10;;;;;;;8.10;1.40;;;;;;;18.31;73.08;100296.17;100742;1339;23071;-35
2022/10/06 08:32:36;;;;;;;0.90;0.60;;;;;;;18.52;72.39;100301.92;100704;1339;22498;-35
2022/10/06 08:35:02;;;;;;;1.00;0.60;;;;;;;18.81;71.49;100303.72;100810;1331;25406;-37
2022/10/06 08:37:28;;;;;;;1.70;0.70;;;;;;;18.69;72.23;100309.82;100823;1334;22500;-35
2022/10/06 08:39:54;;;;;;;3.70;0.80;;;;;;;19.13;69.52;100315.40;100791;1339;22506;-37
2022/10/06 08:42:23;;;;;;;1.60;0.70;;;;;;;19.09;68.85;100313.05;100716;1334;22758;-35
2022/10/06 08:44:55;;;;;;;2.20;1.20;;;;;;;19.06;68.74;100308.79;100723;1332;22952;-37
2022/10/06 08:47:22;;;;;;;1.70;0.40;;;;;;;19.25;69.00;100319.33;100777;1339;22497;-35
2022/10/06 08:49:50;;;;;;;5.30;0.70;;;;;;;19.35;69.12;100317.30;100809;1339;22568;-37
2022/10/06 08:52:20;;;;;;;1.80;0.90;;;;;;;19.33;69.15;100320.35;100803;1331;24866;-37
2022/10/06 08:54:46;;;;;;;2.10;0.50;;;;;;;19.11;69.92;100323.14;100740;1339;22523;-35
2022/10/06 08:57:15;;;;;;;1.90;0.70;;;;;;;19.38;69.03;100323.27;100815;1339;23223;-37
2022/10/06 08:59:43;;;;;;;2.40;0.60;;;;;;;19.51;68.70;100325.73;100816;1339;22747;-38
2022/10/06 09:02:18;;;;;;;2.10;0.80;;;;;;;19.43;69.90;100329.84;100538;1339;24319;-38
2022/10/06 09:04:43;;;;;;;0.90;0.70;;;;;;;19.40;67.94;100328.55;100722;1324;23099;-37
2022/10/06 09:07:13;;;;;;;1.60;0.50;;;;;;;19.29;68.41;100333.10;100750;1331;22537;-37
2022/10/06 09:09:46;;;;;;;1.70;0.60;;;;;;;19.17;70.63;100333.98;100794;1337;25450;-38
2022/10/06 09:12:17;;;;;;;3.10;1.30;;;;;;;19.43;68.91;100341.91;100766;1339;22744;-33
2022/10/06 09:14:46;;;;;;;1.90;0.80;;;;;;;19.44;68.92;100344.38;100776;1339;22869;-36
2022/10/06 09:17:16;;;;;;;0.60;0.60;;;;;;;19.58;68.97;100341.23;100707;1339;22888;-34
2022/10/06 09:19:45;;;;;;;3.50;0.80;;;;;;;19.75;67.51;100352.11;100829;1334;22498;-33
2022/10/06 09:22:15;;;;;;;1.20;0.80;;;;;;;19.61;67.10;100357.52;100749;1333;22711;-37
2022/10/06 09:24:41;;;;;;;2.10;1.00;;;;;;;19.41;68.95;100356.48;100822;1339;22748;-37
2022/10/06 09:27:14;;;;;;;1.10;0.70;;;;;;;19.41;69.84;100359.92;100789;1334;23026;-34
2022/10/06 09:29:40;;;;;;;1.60;0.90;;;;;;;19.06;70.97;100363.73;100793;1339;22570;-37
2022/10/06 09:32:05;;;;;;;1.30;0.30;;;;;;;18.96;71.23;100371.19;100692;1339;22872;-36
2022/10/06 09:34:36;;;;;;;1.80;0.90;;;;;;;18.90;71.43;100375.35;100755;1339;22744;-37
2022/10/06 09:37:03;;;;;;;1.50;0.90;;;;;;;18.85;71.40;100375.99;100757;1339;23087;-38
2022/10/06 09:39:32;;;;;;;1.80;0.90;;;;;;;18.69;73.60;100380.27;100724;1331;23060;-33
2022/10/06 09:42:00;;;;;;;1.50;1.00;;;;;;;18.49;75.37;100385.36;100719;1339;22537;-33
2022/10/06 09:44:26;;;;;;;5.50;0.50;;;;;;;18.29;76.38;100389.40;100730;1335;25286;-33
2022/10/06 09:46:52;;;;;;;4.20;1.10;;;;;;;18.25;76.83;100391.54;100774;1339;22499;-33
2022/10/06 09:49:20;;;;;;;1.10;0.60;;;;;;;17.96;76.82;100398.36;100721;1334;24362;-38
2022/10/06 09:51:48;;;;;;;;;;;;;;;17.82;78.43;100398.44;100577;1338;22481;-38
2022/10/06 09:54:14;;;;;;;1.60;0.50;;;;;;;17.68;78.89;100403.93;100725;1334;22552;-36
2022/10/06 09:56:41;;;;;;;1.00;0.80;;;;;;;17.58;79.98;100403.07;100674;1334;23099;-36
2022/10/06 09:59:17;;;;;;;6.40;1.10;;;;;;;17.54;80.59;100412.02;100813;1332;23170;-37
2022/10/06 10:01:49;;;;;;;7.10;1.30;;;;;;;17.54;80.89;100409.56;100793;1343;22523;-34
2022/10/06 10:04:21;;;;;;;2.10;1.40;;;;;;;17.53;80.65;100410.95;100758;1339;25577;-33
2022/10/06 10:06:46;;;;;;;3.50;1.10;;;;;;;17.60;80.73;100416.35;100789;1339;25297;-36
2022/10/06 10:09:13;;;;;;;5.20;1.50;;;;;;;17.59;81.67;100419.77;100702;1339;22491;-36
2022/10/06 10:14:14;;;;;;;1.20;0.60;;;;;;;17.60;82.44;100424.16;100786;1339;22764;-36
2022/10/06 10:16:39;;;;;;;1.80;0.90;;;;;;;17.72;81.82;100423.39;100760;1339;24324;-35
2022/10/06 10:19:05;;;;;;;1.20;0.70;;;;;;;17.72;82.31;100431.56;100460;1337;22979;-35
2022/10/06 10:21:32;;;;;;;8.30;0.80;;;;;;;17.72;82.79;100429.86;100741;1334;22877;-35
2022/10/06 10:23:59;;;;;;;3.40;0.70;;;;;;;17.70;82.67;100426.92;100786;1339;25361;-37
2022/10/06 10:26:34;;;;;;;1.40;1.00;;;;;;;17.75;81.87;100428.14;100754;1340;22455;-35
2022/10/06 10:29:06;;;;;;;3.70;0.90;;;;;;;17.80;82.51;100427.70;100820;1339;22632;-35
2022/10/06 10:31:36;;;;;;;2.00;1.10;;;;;;;17.81;82.39;100432.48;100732;1333;22779;-34
2022/10/06 10:34:08;;;;;;;1.80;0.80;;;;;;;17.81;81.31;100432.33;100821;1339;25234;-36
2022/10/06 10:36:36;;;;;;;1.00;0.70;;;;;;;17.62;83.10;100438.65;100777;1337;22532;-39
2022/10/06 10:39:05;;;;;;;2.40;1.00;;;;;;;17.76;82.80;100438.39;100523;1343;25217;-41
2022/10/06 10:41:36;;;;;;;1.00;0.60;;;;;;;17.95;81.13;100445.29;100710;1337;22503;-36
2022/10/06 10:44:07;;;;;;;1.50;1.30;;;;;;;18.20;80.35;100437.34;100772;1343;22521;-37
2022/10/06 10:46:34;;;;;;;7.30;1.40;;;;;;;18.62;80.30;100442.89;100762;1317;25630;-35
2022/10/06 10:49:03;;;;;;;1.80;1.30;;;;;;;19.18;77.90;100443.64;100726;1334;23211;-35
2022/10/06 10:51:30;;;;;;;11.00;1.00;;;;;;;19.54;74.98;100445.38;100708;1337;23203;-37
2022/10/06 10:54:01;;;;;;;6.60;1.70;;;;;;;19.46;73.67;100444.83;100549;1334;24309;-34
2022/10/06 10:56:27;;;;;;;3.50;1.60;;;;;;;19.14;74.45;100452.03;100774;1331;23226;-37
2022/10/06 10:58:55;;;;;;;1.40;1.00;;;;;;;18.79;75.54;100462.45;100674;1345;22904;-34
2022/10/06 11:01:28;;;;;;;6.70;1.70;;;;;;;18.60;75.54;100456.75;100835;1339;22503;-35
2022/10/06 11:03:55;;;;;;;;;;;;;;;18.31;76.67;100461.23;100545;1336;22981;-34
2022/10/06 11:06:30;;;;;;;1.00;0.80;;;;;;;18.52;77.18;100462.71;100738;1337;24300;-37
2022/10/06 11:09:01;;;;;;;1.90;1.20;;;;;;;18.55;76.53;100461.61;100760;1345;22874;-36
2022/10/06 11:11:33;;;;;;;2.30;1.30;;;;;;;18.39;76.78;100458.64;100751;1339;24293;-36
2022/10/06 11:13:59;;;;;;;2.50;1.40;;;;;;;18.30;78.34;100461.86;100527;1342;22484;-36
2022/10/06 11:16:35;;;;;;;5.00;1.70;;;;;;;18.45;78.10;100463.08;100681;1345;22857;-37
2022/10/06 11:19:10;;;;;;;3.60;1.40;;;;;;;18.86;76.55;100464.73;100693;1337;22506;-37
2022/10/06 11:21:43;;;;;;;1.60;1.50;;;;;;;19.30;75.86;100466.38;100829;1345;24298;-35
2022/10/06 11:24:14;;;;;;;4.20;1.60;;;;;;;19.77;73.45;100468.48;100533;1340;22513;-37
2022/10/06 11:26:47;;;;;;;2.40;0.70;;;;;;;20.25;72.23;100466.98;100781;1334;22497;-37
2022/10/06 11:29:17;;;;;;;1.80;1.10;;;;;;;20.03;70.34;100479.66;100763;1338;24337;-34
2022/10/06 11:31:51;;;;;;;4.10;1.30;;;;;;;19.66;71.12;100481.92;100583;1343;22891;-34
2022/10/06 11:34:16;;;;;;;1.90;1.20;;;;;;;19.45;72.29;100475.10;100730;1345;22890;-36
2022/10/06 11:36:46;;;;;;;2.00;1.20;;;;;;;19.31;71.91;100480.13;100727;1337;22769;-34